createdAt,value
2018-09-30T00:04:18.769Z,1015.67
2018-09-30T00:09:14.000Z,1015.61
2018-09-30T00:14:10.736Z,1015.47
2018-09-30T00:19:06.269Z,1015.35
2018-09-30T00:24:02.037Z,1015.36
2018-09-30T00:28:57.656Z,1015.20
2018-09-30T00:33:54.560Z,1015.20
2018-09-30T00:38:50.652Z,1015.10
2018-09-30T00:43:46.155Z,1015.16
2018-09-30T00:48:42.601Z,1014.99
2018-09-30T00:53:40.131Z,1014.90
2018-09-30T00:58:35.328Z,1014.88
2018-09-30T01:03:32.236Z,1014.79
2018-09-30T01:08:27.531Z,1014.68
2018-09-30T01:13:23.577Z,1014.57
2018-09-30T01:18:19.324Z,1014.51
2018-09-30T01:23:16.148Z,1014.40
2018-09-30T01:28:12.626Z,1014.28
2018-09-30T01:33:08.002Z,1014.18
2018-09-30T01:38:03.466Z,1014.10
2018-09-30T01:43:00.123Z,1014.12
2018-09-30T01:47:55.576Z,1014.05
2018-09-30T01:52:51.375Z,1013.91
2018-09-30T01:57:47.653Z,1013.96
2018-09-30T02:02:43.831Z,1013.88
2018-09-30T02:07:39.418Z,1013.87
2018-09-30T02:12:36.116Z,1013.86
2018-09-30T02:17:31.428Z,1013.83
2018-09-30T02:22:27.274Z,1013.83
2018-09-30T02:27:23.709Z,1013.72
2018-09-30T02:32:19.403Z,1013.67
2018-09-30T02:37:15.935Z,1013.60
2018-09-30T02:42:11.317Z,1013.40
2018-09-30T02:47:08.011Z,1013.33
2018-09-30T02:52:04.081Z,1013.32
2018-09-30T02:56:59.856Z,1013.42
2018-09-30T03:01:55.474Z,1013.30
2018-09-30T03:06:51.138Z,1013.28
2018-09-30T03:11:46.817Z,1013.22
2018-09-30T03:16:43.290Z,1013.40
2018-09-30T03:21:40.221Z,1013.31
2018-09-30T03:26:35.832Z,1013.24
2018-09-30T03:31:32.495Z,1013.17
2018-09-30T03:36:27.808Z,1013.16
2018-09-30T03:41:23.673Z,1013.19
2018-09-30T03:46:20.280Z,1013.05
2018-09-30T03:51:16.774Z,1012.99
2018-09-30T03:56:12.188Z,1012.95
2018-09-30T04:01:09.298Z,1012.92
2018-09-30T04:06:04.657Z,1012.89
2018-09-30T04:11:00.508Z,1012.76
2018-09-30T04:15:56.833Z,1012.82
2018-09-30T04:20:53.183Z,1012.77
2018-09-30T04:25:49.718Z,1012.68
2018-09-30T04:30:45.547Z,1012.62
2018-09-30T04:35:41.233Z,1012.76
2018-09-30T04:40:36.637Z,1012.82
2018-09-30T04:45:33.281Z,1012.81
2018-09-30T04:50:28.805Z,1012.88
2018-09-30T04:55:25.501Z,1012.85
2018-09-30T05:00:21.735Z,1012.72
2018-09-30T05:05:17.700Z,1012.78
2018-09-30T05:10:13.429Z,1012.77
2018-09-30T05:15:09.880Z,1012.67
2018-09-30T05:20:05.329Z,1012.68
2018-09-30T05:25:02.164Z,1012.73
2018-09-30T05:29:58.628Z,1012.69
2018-09-30T05:34:53.885Z,1012.73
2018-09-30T05:39:49.519Z,1012.54
2018-09-30T05:44:45.271Z,1012.53
2018-09-30T05:49:40.753Z,1012.63
2018-09-30T05:54:37.860Z,1012.62
2018-09-30T05:59:33.261Z,1012.67
2018-09-30T06:04:28.991Z,1012.61
2018-09-30T06:09:24.581Z,1012.62
2018-09-30T06:14:21.317Z,1012.56
2018-09-30T06:19:17.242Z,1012.60
2018-09-30T06:24:14.306Z,1012.64
2018-09-30T06:29:09.798Z,1012.59
2018-09-30T06:34:07.415Z,1012.68
2018-09-30T06:39:02.829Z,1012.64
2018-09-30T06:43:59.639Z,1012.61
2018-09-30T06:48:57.040Z,1012.72
2018-09-30T06:53:53.821Z,1012.66
2018-09-30T06:58:49.379Z,1012.68
2018-09-30T07:03:46.284Z,1012.66
2018-09-30T07:08:42.920Z,1012.60
2018-09-30T07:13:39.262Z,1012.56
2018-09-30T07:18:35.046Z,1012.60
2018-09-30T07:23:30.710Z,1012.55
2018-09-30T07:28:26.413Z,1012.58
2018-09-30T07:33:22.189Z,1012.54
2018-09-30T07:38:18.070Z,1012.63
2018-09-30T07:43:15.245Z,1012.63
2018-09-30T07:48:12.160Z,1012.70
2018-09-30T07:53:08.713Z,1012.66
2018-09-30T07:58:04.511Z,1012.64
2018-09-30T08:03:00.281Z,1012.48
2018-09-30T08:07:56.219Z,1012.55
2018-09-30T08:12:52.992Z,1012.53
2018-09-30T08:17:49.595Z,1012.47
2018-09-30T08:22:46.631Z,1012.29
2018-09-30T08:27:43.233Z,1012.34
2018-09-30T08:32:38.705Z,1012.38
2018-09-30T08:37:35.620Z,1012.27
2018-09-30T08:42:31.101Z,1012.28
2018-09-30T08:47:27.586Z,1012.20
2018-09-30T08:52:23.482Z,1012.08
2018-09-30T08:57:19.556Z,1012.09
2018-09-30T09:02:15.791Z,1012.09
2018-09-30T09:07:11.769Z,1012.06
2018-09-30T09:12:08.996Z,1012.00
2018-09-30T09:17:05.689Z,1011.91
2018-09-30T09:22:01.974Z,1011.95
2018-09-30T09:26:58.043Z,1011.89
2018-09-30T09:31:54.002Z,1011.78
2018-09-30T09:36:50.144Z,1011.88
2018-09-30T09:41:47.209Z,1011.78
2018-09-30T09:46:43.668Z,1011.63
2018-09-30T09:51:39.347Z,1011.65
2018-09-30T09:56:35.517Z,1011.50
2018-09-30T10:01:31.464Z,1011.45
2018-09-30T10:06:28.622Z,1011.54
2018-09-30T10:11:25.356Z,1011.38
2018-09-30T10:16:21.905Z,1011.38
2018-09-30T10:21:17.947Z,1011.37
2018-09-30T10:26:15.364Z,1011.32
2018-09-30T10:31:12.165Z,1011.27
2018-09-30T10:36:08.344Z,1011.15
2018-09-30T10:41:03.931Z,1011.13
2018-09-30T10:45:59.943Z,1011.12
2018-09-30T10:50:57.304Z,1010.97
2018-09-30T10:55:54.029Z,1010.83
2018-09-30T11:00:52.359Z,1010.93
2018-09-30T11:05:49.133Z,1010.90
2018-09-30T11:10:46.966Z,1010.95
2018-09-30T11:15:43.932Z,1010.78
2018-09-30T11:20:40.709Z,1010.70
2018-09-30T11:25:36.855Z,1010.61
2018-09-30T11:30:34.288Z,1010.51
2018-09-30T11:35:30.732Z,1010.37
2018-09-30T11:40:27.519Z,1010.25
2018-09-30T11:45:22.609Z,1010.12
2018-09-30T11:50:17.945Z,1010.08
2018-09-30T11:55:13.452Z,1009.93
2018-09-30T12:00:09.006Z,1009.72
2018-09-30T12:05:07.181Z,1009.73
2018-09-30T12:10:02.537Z,1009.71
2018-09-30T12:14:59.626Z,1009.69
2018-09-30T12:19:55.738Z,1009.56
2018-09-30T12:24:52.779Z,1009.39
2018-09-30T12:29:47.905Z,1009.58
2018-09-30T12:34:43.625Z,1009.39
2018-09-30T12:39:40.046Z,1009.35
2018-09-30T12:44:35.419Z,1009.32
2018-09-30T12:49:31.668Z,1009.35
2018-09-30T12:54:27.587Z,1009.34
2018-09-30T12:59:23.752Z,1009.19
2018-09-30T13:04:20.238Z,1009.18
2018-09-30T13:09:16.105Z,1009.07
2018-09-30T13:14:11.894Z,1008.97
2018-09-30T13:19:08.593Z,1008.97
2018-09-30T13:24:04.294Z,1008.76
2018-09-30T13:29:00.689Z,1008.68
2018-09-30T13:33:56.081Z,1008.70
2018-09-30T13:38:53.217Z,1008.69
2018-09-30T13:43:48.716Z,1008.61
2018-09-30T13:48:45.833Z,1008.70
2018-09-30T13:53:41.301Z,1008.67
2018-09-30T13:58:37.975Z,1008.65
2018-09-30T14:03:33.452Z,1008.57
2018-09-30T14:08:28.970Z,1008.54
2018-09-30T14:13:25.093Z,1008.53
2018-09-30T14:18:22.316Z,1008.42
2018-09-30T14:23:17.946Z,1008.32
2018-09-30T14:28:13.855Z,1008.34
2018-09-30T14:33:10.054Z,1008.33
2018-09-30T14:38:07.009Z,1008.32
2018-09-30T14:43:04.296Z,1008.43
2018-09-30T14:48:00.126Z,1008.39
2018-09-30T14:52:55.906Z,1008.31
2018-09-30T14:57:52.849Z,1008.37
2018-09-30T15:02:49.355Z,1008.36
2018-09-30T15:07:45.972Z,1008.35
2018-09-30T15:12:42.446Z,1008.24
2018-09-30T15:17:37.860Z,1008.29
2018-09-30T15:22:34.575Z,1008.20
2018-09-30T15:27:30.320Z,1008.20
2018-09-30T15:32:27.738Z,1008.20
2018-09-30T15:37:23.303Z,1008.30
2018-09-30T15:42:19.197Z,1008.21
2018-09-30T15:47:14.922Z,1008.25
2018-09-30T15:52:11.550Z,1008.22
2018-09-30T15:57:07.006Z,1008.28
2018-09-30T16:02:02.935Z,1008.28
2018-09-30T16:06:58.844Z,1008.31
2018-09-30T16:11:54.574Z,1008.29
2018-09-30T16:16:50.294Z,1008.20
2018-09-30T16:21:45.943Z,1008.19
2018-09-30T16:26:43.554Z,1008.18
2018-09-30T16:31:39.953Z,1008.13
2018-09-30T16:36:35.568Z,1008.11
2018-09-30T16:41:32.283Z,1008.08
2018-09-30T16:46:29.071Z,1008.19
2018-09-30T16:51:25.554Z,1008.22
2018-09-30T16:56:20.934Z,1008.21
2018-09-30T17:01:16.824Z,1008.23
2018-09-30T17:06:12.228Z,1008.28
2018-09-30T17:11:08.497Z,1008.35
2018-09-30T17:16:04.235Z,1008.45
2018-09-30T17:21:00.117Z,1008.43
2018-09-30T17:25:55.937Z,1008.51
2018-09-30T17:30:51.804Z,1008.50
2018-09-30T17:35:48.805Z,1008.54
2018-09-30T17:40:43.990Z,1008.47
2018-09-30T17:45:39.860Z,1008.50
2018-09-30T17:50:35.689Z,1008.46
2018-09-30T17:55:31.821Z,1008.44
2018-09-30T18:00:28.576Z,1008.40
2018-09-30T18:05:24.318Z,1008.45
2018-09-30T18:10:20.864Z,1008.51
2018-09-30T18:15:16.342Z,1008.54
2018-09-30T18:20:11.833Z,1008.49
2018-09-30T18:25:08.625Z,1008.47
2018-09-30T18:30:04.899Z,1008.37
2018-09-30T18:35:01.733Z,1008.43
2018-09-30T18:39:58.832Z,1008.38
2018-09-30T18:44:54.361Z,1008.56
2018-09-30T18:49:50.652Z,1008.46
2018-09-30T18:54:46.363Z,1008.35
2018-09-30T18:59:42.505Z,1008.33
2018-09-30T19:04:38.377Z,1008.33
2018-09-30T19:09:35.211Z,1008.29
2018-09-30T19:14:30.609Z,1008.30
2018-09-30T19:19:27.822Z,1008.34
2018-09-30T19:24:24.130Z,1008.32
2018-09-30T19:29:19.671Z,1008.29
2018-09-30T19:34:15.488Z,1008.35
2018-09-30T19:39:11.598Z,1008.48
2018-09-30T19:44:07.540Z,1008.38
2018-09-30T19:49:03.237Z,1008.38
2018-09-30T19:53:59.136Z,1008.37
2018-09-30T19:58:54.952Z,1008.36
2018-09-30T20:03:50.765Z,1008.32
2018-09-30T20:08:46.599Z,1008.32
2018-09-30T20:13:42.207Z,1008.33
2018-09-30T20:18:38.388Z,1008.31
2018-09-30T20:23:34.261Z,1008.28
2018-09-30T20:28:30.588Z,1008.27
2018-09-30T20:33:27.468Z,1008.08
2018-09-30T20:38:23.501Z,1008.03
2018-09-30T20:43:19.239Z,1008.01
2018-09-30T20:48:14.989Z,1008.03
2018-09-30T20:53:10.840Z,1008.06
2018-09-30T20:58:07.542Z,1008.02
2018-09-30T21:03:03.842Z,1008.06
2018-09-30T21:07:59.671Z,1007.98
2018-09-30T21:12:55.893Z,1008.03
2018-09-30T21:17:51.673Z,1007.91
2018-09-30T21:22:48.100Z,1007.96
2018-09-30T21:27:44.531Z,1007.86
2018-09-30T21:32:39.864Z,1007.94
2018-09-30T21:37:35.497Z,1007.96
2018-09-30T21:42:31.966Z,1007.91
2018-09-30T21:47:27.813Z,1007.92
2018-09-30T21:52:23.579Z,1007.88
2018-09-30T21:57:19.275Z,1007.88
2018-09-30T22:02:15.035Z,1007.85
2018-09-30T22:07:12.147Z,1007.80
2018-09-30T22:12:08.587Z,1007.75
2018-09-30T22:17:04.699Z,1007.79
2018-09-30T22:22:01.576Z,1007.76
2018-09-30T22:26:57.235Z,1007.80
2018-09-30T22:31:53.171Z,1007.83
2018-09-30T22:36:50.069Z,1007.74
2018-09-30T22:41:46.368Z,1007.75
2018-09-30T22:46:43.012Z,1007.80
2018-09-30T22:51:38.484Z,1007.69
2018-09-30T22:56:35.763Z,1007.67
2018-09-30T23:01:31.532Z,1007.71
2018-09-30T23:06:27.299Z,1007.74
2018-09-30T23:11:23.116Z,1007.66
2018-09-30T23:16:19.177Z,1007.67
2018-09-30T23:21:15.160Z,1007.60
2018-09-30T23:26:11.099Z,1007.65
2018-09-30T23:31:07.163Z,1007.61
2018-09-30T23:36:02.744Z,1007.56
2018-09-30T23:40:58.846Z,1007.68
2018-09-30T23:45:55.660Z,1007.68
2018-09-30T23:50:52.019Z,1007.74
2018-09-30T23:55:48.160Z,1007.69
